sensor_id;sensor_type;location;lat;lon;timestamp;temperature;humidity
11540;DHT22;5826;54.756;9.192;2023-12-14T00:01:35;3.80;91.10
11540;DHT22;5826;54.756;9.192;2023-12-14T00:04:01;3.70;91.00
11540;DHT22;5826;54.756;9.192;2023-12-14T00:06:29;3.70;91.00
11540;DHT22;5826;54.756;9.192;2023-12-14T00:08:54;3.70;91.10
11540;DHT22;5826;54.756;9.192;2023-12-14T00:11:20;4.30;91.40
11540;DHT22;5826;54.756;9.192;2023-12-14T00:13:45;3.70;91.20
11540;DHT22;5826;54.756;9.192;2023-12-14T00:16:11;3.70;91.20
11540;DHT22;5826;54.756;9.192;2023-12-14T00:18:36;3.70;91.10
11540;DHT22;5826;54.756;9.192;2023-12-14T00:21:03;3.70;91.00
11540;DHT22;5826;54.756;9.192;2023-12-14T00:23:28;3.70;91.00
11540;DHT22;5826;54.756;9.192;2023-12-14T00:25:54;3.70;91.00
11540;DHT22;5826;54.756;9.192;2023-12-14T00:28:19;4.10;91.20
11540;DHT22;5826;54.756;9.192;2023-12-14T00:30:45;3.70;91.20
11540;DHT22;5826;54.756;9.192;2023-12-14T00:33:10;3.70;91.20
11540;DHT22;5826;54.756;9.192;2023-12-14T00:35:36;3.80;91.20
11540;DHT22;5826;54.756;9.192;2023-12-14T00:38:01;3.80;91.10
11540;DHT22;5826;54.756;9.192;2023-12-14T00:40:27;3.80;91.10
11540;DHT22;5826;54.756;9.192;2023-12-14T00:42:52;3.80;91.00
11540;DHT22;5826;54.756;9.192;2023-12-14T00:45:18;3.80;91.10
11540;DHT22;5826;54.756;9.192;2023-12-14T00:47:43;3.80;91.10
11540;DHT22;5826;54.756;9.192;2023-12-14T00:50:09;3.80;91.10
11540;DHT22;5826;54.756;9.192;2023-12-14T00:52:34;3.70;91.00
11540;DHT22;5826;54.756;9.192;2023-12-14T00:55:00;3.70;91.20
11540;DHT22;5826;54.756;9.192;2023-12-14T00:57:25;3.70;91.20
11540;DHT22;5826;54.756;9.192;2023-12-14T00:59:51;3.70;91.20
11540;DHT22;5826;54.756;9.192;2023-12-14T01:02:16;3.90;91.30
11540;DHT22;5826;54.756;9.192;2023-12-14T01:04:42;3.70;91.20
11540;DHT22;5826;54.756;9.192;2023-12-14T01:07:08;3.70;91.20
11540;DHT22;5826;54.756;9.192;2023-12-14T01:09:34;3.70;91.10
11540;DHT22;5826;54.756;9.192;2023-12-14T01:11:59;3.70;91.20
11540;DHT22;5826;54.756;9.192;2023-12-14T01:14:25;3.70;91.30
11540;DHT22;5826;54.756;9.192;2023-12-14T01:16:50;3.70;91.20
11540;DHT22;5826;54.756;9.192;2023-12-14T01:19:16;3.80;91.20
11540;DHT22;5826;54.756;9.192;2023-12-14T01:21:41;3.70;91.10
11540;DHT22;5826;54.756;9.192;2023-12-14T01:24:07;3.70;91.20
11540;DHT22;5826;54.756;9.192;2023-12-14T01:26:32;3.80;91.20
11540;DHT22;5826;54.756;9.192;2023-12-14T01:28:58;3.70;91.10
11540;DHT22;5826;54.756;9.192;2023-12-14T01:31:26;3.70;91.10
11540;DHT22;5826;54.756;9.192;2023-12-14T01:33:52;3.60;91.50
11540;DHT22;5826;54.756;9.192;2023-12-14T01:36:24;3.70;91.30
11540;DHT22;5826;54.756;9.192;2023-12-14T01:38:50;3.70;91.30
11540;DHT22;5826;54.756;9.192;2023-12-14T01:41:16;3.70;91.30
11540;DHT22;5826;54.756;9.192;2023-12-14T01:43:42;3.70;91.30
11540;DHT22;5826;54.756;9.192;2023-12-14T01:46:08;3.70;91.20
11540;DHT22;5826;54.756;9.192;2023-12-14T01:48:33;3.70;91.20
11540;DHT22;5826;54.756;9.192;2023-12-14T01:50:59;3.70;91.20
11540;DHT22;5826;54.756;9.192;2023-12-14T01:53:24;3.70;91.20
11540;DHT22;5826;54.756;9.192;2023-12-14T01:55:50;3.70;91.20
11540;DHT22;5826;54.756;9.192;2023-12-14T01:58:16;3.70;91.20
11540;DHT22;5826;54.756;9.192;2023-12-14T02:03:11;3.60;91.20
11540;DHT22;5826;54.756;9.192;2023-12-14T02:05:37;3.60;91.20
11540;DHT22;5826;54.756;9.192;2023-12-14T02:08:02;3.60;91.20
11540;DHT22;5826;54.756;9.192;2023-12-14T02:10:28;3.60;91.20
11540;DHT22;5826;54.756;9.192;2023-12-14T02:12:54;3.60;91.20
11540;DHT22;5826;54.756;9.192;2023-12-14T02:15:19;3.60;91.20
11540;DHT22;5826;54.756;9.192;2023-12-14T02:17:45;3.70;91.20
11540;DHT22;5826;54.756;9.192;2023-12-14T02:20:11;3.80;91.10
11540;DHT22;5826;54.756;9.192;2023-12-14T02:22:53;3.80;91.10
11540;DHT22;5826;54.756;9.192;2023-12-14T02:25:19;3.70;91.10
11540;DHT22;5826;54.756;9.192;2023-12-14T02:27:45;3.80;91.10
11540;DHT22;5826;54.756;9.192;2023-12-14T02:30:12;3.80;91.10
11540;DHT22;5826;54.756;9.192;2023-12-14T02:32:38;3.80;91.00
11540;DHT22;5826;54.756;9.192;2023-12-14T02:35:05;3.70;91.00
11540;DHT22;5826;54.756;9.192;2023-12-14T02:37:31;3.80;91.10
11540;DHT22;5826;54.756;9.192;2023-12-14T02:39:57;3.80;91.10
11540;DHT22;5826;54.756;9.192;2023-12-14T02:42:23;3.80;91.10
11540;DHT22;5826;54.756;9.192;2023-12-14T02:44:49;3.80;91.10
11540;DHT22;5826;54.756;9.192;2023-12-14T02:47:14;3.80;91.00
11540;DHT22;5826;54.756;9.192;2023-12-14T02:49:40;3.80;91.00
11540;DHT22;5826;54.756;9.192;2023-12-14T02:52:06;3.80;91.00
11540;DHT22;5826;54.756;9.192;2023-12-14T02:54:31;3.80;91.00
11540;DHT22;5826;54.756;9.192;2023-12-14T02:56:57;3.80;91.00
11540;DHT22;5826;54.756;9.192;2023-12-14T02:59:22;3.80;91.10
11540;DHT22;5826;54.756;9.192;2023-12-14T03:01:48;3.80;91.10
11540;DHT22;5826;54.756;9.192;2023-12-14T03:04:13;3.70;91.10
11540;DHT22;5826;54.756;9.192;2023-12-14T03:06:39;3.70;91.10
11540;DHT22;5826;54.756;9.192;2023-12-14T03:09:04;3.70;91.20
11540;DHT22;5826;54.756;9.192;2023-12-14T03:11:30;3.70;91.10
11540;DHT22;5826;54.756;9.192;2023-12-14T03:13:56;3.70;91.10
11540;DHT22;5826;54.756;9.192;2023-12-14T03:16:21;3.70;91.10
11540;DHT22;5826;54.756;9.192;2023-12-14T03:18:47;3.70;91.20
11540;DHT22;5826;54.756;9.192;2023-12-14T03:21:17;3.60;91.20
11540;DHT22;5826;54.756;9.192;2023-12-14T03:23:43;3.70;91.40
11540;DHT22;5826;54.756;9.192;2023-12-14T03:26:09;3.60;91.40
11540;DHT22;5826;54.756;9.192;2023-12-14T03:28:34;3.60;91.30
11540;DHT22;5826;54.756;9.192;2023-12-14T03:31:00;3.60;91.20
11540;DHT22;5826;54.756;9.192;2023-12-14T03:33:26;3.70;91.30
11540;DHT22;5826;54.756;9.192;2023-12-14T03:35:51;3.70;91.20
11540;DHT22;5826;54.756;9.192;2023-12-14T03:38:17;3.70;91.20
11540;DHT22;5826;54.756;9.192;2023-12-14T03:40:42;3.70;91.30
11540;DHT22;5826;54.756;9.192;2023-12-14T03:43:08;3.70;91.10
11540;DHT22;5826;54.756;9.192;2023-12-14T03:45:33;3.70;91.20
11540;DHT22;5826;54.756;9.192;2023-12-14T03:47:59;3.70;91.30
11540;DHT22;5826;54.756;9.192;2023-12-14T03:50:24;3.70;91.40
11540;DHT22;5826;54.756;9.192;2023-12-14T03:52:50;3.70;91.30
11540;DHT22;5826;54.756;9.192;2023-12-14T03:55:15;3.80;91.30
11540;DHT22;5826;54.756;9.192;2023-12-14T03:57:41;3.80;91.20
11540;DHT22;5826;54.756;9.192;2023-12-14T04:00:12;3.80;91.10
11540;DHT22;5826;54.756;9.192;2023-12-14T04:02:39;3.80;91.10
11540;DHT22;5826;54.756;9.192;2023-12-14T04:05:06;3.80;91.20
11540;DHT22;5826;54.756;9.192;2023-12-14T04:07:32;3.80;91.20
11540;DHT22;5826;54.756;9.192;2023-12-14T04:09:57;3.80;91.10
11540;DHT22;5826;54.756;9.192;2023-12-14T04:12:23;3.80;91.20
11540;DHT22;5826;54.756;9.192;2023-12-14T04:14:48;4.00;91.30
11540;DHT22;5826;54.756;9.192;2023-12-14T04:17:15;3.70;91.20
11540;DHT22;5826;54.756;9.192;2023-12-14T04:19:41;3.80;91.30
11540;DHT22;5826;54.756;9.192;2023-12-14T04:22:06;3.80;91.20
11540;DHT22;5826;54.756;9.192;2023-12-14T04:24:32;3.80;91.20
11540;DHT22;5826;54.756;9.192;2023-12-14T04:26:58;3.80;91.10
11540;DHT22;5826;54.756;9.192;2023-12-14T04:29:23;3.80;91.20
11540;DHT22;5826;54.756;9.192;2023-12-14T04:31:49;3.80;91.20
11540;DHT22;5826;54.756;9.192;2023-12-14T04:34:14;3.80;91.20
11540;DHT22;5826;54.756;9.192;2023-12-14T04:36:45;3.80;91.30
11540;DHT22;5826;54.756;9.192;2023-12-14T04:39:11;3.80;91.30
11540;DHT22;5826;54.756;9.192;2023-12-14T04:41:36;3.90;91.40
11540;DHT22;5826;54.756;9.192;2023-12-14T04:44:02;3.80;91.30
11540;DHT22;5826;54.756;9.192;2023-12-14T04:46:28;3.90;91.30
11540;DHT22;5826;54.756;9.192;2023-12-14T04:48:53;3.80;91.30
11540;DHT22;5826;54.756;9.192;2023-12-14T04:51:19;3.80;91.30
11540;DHT22;5826;54.756;9.192;2023-12-14T04:53:44;3.90;91.30
11540;DHT22;5826;54.756;9.192;2023-12-14T04:56:12;3.90;91.30
11540;DHT22;5826;54.756;9.192;2023-12-14T04:58:41;3.90;91.20
11540;DHT22;5826;54.756;9.192;2023-12-14T05:01:07;3.90;91.20
11540;DHT22;5826;54.756;9.192;2023-12-14T05:03:34;3.90;91.20
11540;DHT22;5826;54.756;9.192;2023-12-14T05:06:00;3.90;91.30
11540;DHT22;5826;54.756;9.192;2023-12-14T05:08:25;3.90;91.30
11540;DHT22;5826;54.756;9.192;2023-12-14T05:10:51;3.90;91.40
11540;DHT22;5826;54.756;9.192;2023-12-14T05:13:16;3.90;91.30
11540;DHT22;5826;54.756;9.192;2023-12-14T05:15:42;3.90;91.40
11540;DHT22;5826;54.756;9.192;2023-12-14T05:18:08;3.90;91.40
11540;DHT22;5826;54.756;9.192;2023-12-14T05:20:34;3.90;91.50
11540;DHT22;5826;54.756;9.192;2023-12-14T05:23:00;3.90;91.50
11540;DHT22;5826;54.756;9.192;2023-12-14T05:25:25;3.90;91.50
11540;DHT22;5826;54.756;9.192;2023-12-14T05:27:51;3.90;91.50
11540;DHT22;5826;54.756;9.192;2023-12-14T05:30:16;3.90;91.50
11540;DHT22;5826;54.756;9.192;2023-12-14T05:32:43;3.90;91.50
11540;DHT22;5826;54.756;9.192;2023-12-14T05:35:09;3.90;91.50
11540;DHT22;5826;54.756;9.192;2023-12-14T05:37:35;3.90;91.50
11540;DHT22;5826;54.756;9.192;2023-12-14T05:40:01;3.90;91.50
11540;DHT22;5826;54.756;9.192;2023-12-14T05:42:26;3.90;91.60
11540;DHT22;5826;54.756;9.192;2023-12-14T05:44:52;3.90;91.60
11540;DHT22;5826;54.756;9.192;2023-12-14T05:47:17;3.90;91.70
11540;DHT22;5826;54.756;9.192;2023-12-14T05:49:43;3.90;91.60
11540;DHT22;5826;54.756;9.192;2023-12-14T05:52:09;3.90;91.70
11540;DHT22;5826;54.756;9.192;2023-12-14T05:54:38;3.90;91.70
11540;DHT22;5826;54.756;9.192;2023-12-14T05:57:07;3.90;91.70
11540;DHT22;5826;54.756;9.192;2023-12-14T05:59:32;3.90;91.70
11540;DHT22;5826;54.756;9.192;2023-12-14T06:01:59;3.90;91.80
11540;DHT22;5826;54.756;9.192;2023-12-14T06:04:25;3.90;91.90
11540;DHT22;5826;54.756;9.192;2023-12-14T06:06:51;3.90;91.90
11540;DHT22;5826;54.756;9.192;2023-12-14T06:09:17;3.90;91.90
11540;DHT22;5826;54.756;9.192;2023-12-14T06:11:47;3.90;91.90
11540;DHT22;5826;54.756;9.192;2023-12-14T06:14:12;3.90;91.90
11540;DHT22;5826;54.756;9.192;2023-12-14T06:16:37;3.90;92.00
11540;DHT22;5826;54.756;9.192;2023-12-14T06:19:03;3.90;91.90
11540;DHT22;5826;54.756;9.192;2023-12-14T06:21:29;3.90;92.00
11540;DHT22;5826;54.756;9.192;2023-12-14T06:23:56;3.90;92.00
11540;DHT22;5826;54.756;9.192;2023-12-14T06:26:22;3.90;92.00
11540;DHT22;5826;54.756;9.192;2023-12-14T06:28:48;3.90;92.00
11540;DHT22;5826;54.756;9.192;2023-12-14T06:31:14;3.80;92.00
11540;DHT22;5826;54.756;9.192;2023-12-14T06:33:40;3.90;92.10
11540;DHT22;5826;54.756;9.192;2023-12-14T06:36:07;4.50;92.20
11540;DHT22;5826;54.756;9.192;2023-12-14T06:38:33;3.80;92.00
11540;DHT22;5826;54.756;9.192;2023-12-14T06:40:59;4.30;92.20
11540;DHT22;5826;54.756;9.192;2023-12-14T06:43:25;3.90;92.10
11540;DHT22;5826;54.756;9.192;2023-12-14T06:45:50;3.80;92.10
11540;DHT22;5826;54.756;9.192;2023-12-14T06:48:16;3.80;92.10
11540;DHT22;5826;54.756;9.192;2023-12-14T06:50:41;3.80;92.10
11540;DHT22;5826;54.756;9.192;2023-12-14T06:53:07;3.80;92.10
11540;DHT22;5826;54.756;9.192;2023-12-14T06:55:32;3.80;92.10
11540;DHT22;5826;54.756;9.192;2023-12-14T06:57:57;3.90;92.20
11540;DHT22;5826;54.756;9.192;2023-12-14T07:00:23;3.90;92.20
11540;DHT22;5826;54.756;9.192;2023-12-14T07:02:48;4.30;92.30
11540;DHT22;5826;54.756;9.192;2023-12-14T07:05:14;3.80;92.10
11540;DHT22;5826;54.756;9.192;2023-12-14T07:07:40;3.90;92.20
11540;DHT22;5826;54.756;9.192;2023-12-14T07:10:06;3.90;92.20
11540;DHT22;5826;54.756;9.192;2023-12-14T07:12:32;3.90;92.20
11540;DHT22;5826;54.756;9.192;2023-12-14T07:14:57;3.90;92.50
11540;DHT22;5826;54.756;9.192;2023-12-14T07:17:23;3.90;92.10
11540;DHT22;5826;54.756;9.192;2023-12-14T07:19:49;4.00;92.10
11540;DHT22;5826;54.756;9.192;2023-12-14T07:22:15;3.90;92.10
11540;DHT22;5826;54.756;9.192;2023-12-14T07:24:41;3.90;92.00
11540;DHT22;5826;54.756;9.192;2023-12-14T07:27:07;3.80;92.00
11540;DHT22;5826;54.756;9.192;2023-12-14T07:29:32;3.90;92.10
11540;DHT22;5826;54.756;9.192;2023-12-14T07:31:58;3.90;92.10
11540;DHT22;5826;54.756;9.192;2023-12-14T07:34:23;3.90;92.10
11540;DHT22;5826;54.756;9.192;2023-12-14T07:36:50;3.90;92.10
11540;DHT22;5826;54.756;9.192;2023-12-14T07:39:15;3.90;92.10
11540;DHT22;5826;54.756;9.192;2023-12-14T07:41:41;3.90;92.10
11540;DHT22;5826;54.756;9.192;2023-12-14T07:44:06;3.90;92.10
11540;DHT22;5826;54.756;9.192;2023-12-14T07:46:32;3.90;92.20
11540;DHT22;5826;54.756;9.192;2023-12-14T07:48:57;3.90;92.20
11540;DHT22;5826;54.756;9.192;2023-12-14T07:51:23;3.80;92.30
11540;DHT22;5826;54.756;9.192;2023-12-14T07:53:48;3.90;92.30
11540;DHT22;5826;54.756;9.192;2023-12-14T07:56:14;3.90;92.30
11540;DHT22;5826;54.756;9.192;2023-12-14T07:58:40;3.90;92.20
11540;DHT22;5826;54.756;9.192;2023-12-14T08:01:05;3.90;92.20
11540;DHT22;5826;54.756;9.192;2023-12-14T08:03:31;3.90;92.30
11540;DHT22;5826;54.756;9.192;2023-12-14T08:05:56;3.90;92.30
11540;DHT22;5826;54.756;9.192;2023-12-14T08:08:22;3.90;92.30
11540;DHT22;5826;54.756;9.192;2023-12-14T08:10:47;4.00;92.20
11540;DHT22;5826;54.756;9.192;2023-12-14T08:13:13;4.00;92.20
11540;DHT22;5826;54.756;9.192;2023-12-14T08:15:38;4.00;92.20
11540;DHT22;5826;54.756;9.192;2023-12-14T08:18:04;3.90;92.10
11540;DHT22;5826;54.756;9.192;2023-12-14T08:20:29;3.90;92.20
11540;DHT22;5826;54.756;9.192;2023-12-14T08:22:55;3.90;92.20
11540;DHT22;5826;54.756;9.192;2023-12-14T08:25:21;3.90;92.30
11540;DHT22;5826;54.756;9.192;2023-12-14T08:27:46;3.90;92.30
11540;DHT22;5826;54.756;9.192;2023-12-14T08:30:13;3.90;92.20
11540;DHT22;5826;54.756;9.192;2023-12-14T08:32:38;4.00;92.30
11540;DHT22;5826;54.756;9.192;2023-12-14T08:35:04;3.90;92.30
11540;DHT22;5826;54.756;9.192;2023-12-14T08:37:30;4.00;92.30
11540;DHT22;5826;54.756;9.192;2023-12-14T08:39:55;4.00;92.30
11540;DHT22;5826;54.756;9.192;2023-12-14T08:42:21;4.10;92.40
11540;DHT22;5826;54.756;9.192;2023-12-14T08:44:47;4.10;92.30
11540;DHT22;5826;54.756;9.192;2023-12-14T08:47:12;4.10;92.20
11540;DHT22;5826;54.756;9.192;2023-12-14T08:49:38;4.20;92.20
11540;DHT22;5826;54.756;9.192;2023-12-14T08:52:03;4.20;92.10
11540;DHT22;5826;54.756;9.192;2023-12-14T08:54:31;4.20;92.00
11540;DHT22;5826;54.756;9.192;2023-12-14T08:56:57;4.30;92.00
11540;DHT22;5826;54.756;9.192;2023-12-14T08:59:23;4.30;91.90
11540;DHT22;5826;54.756;9.192;2023-12-14T09:01:49;4.30;91.90
11540;DHT22;5826;54.756;9.192;2023-12-14T09:04:14;4.30;91.90
11540;DHT22;5826;54.756;9.192;2023-12-14T09:06:40;4.40;91.90
11540;DHT22;5826;54.756;9.192;2023-12-14T09:09:10;4.40;91.80
11540;DHT22;5826;54.756;9.192;2023-12-14T09:11:36;4.40;91.80
11540;DHT22;5826;54.756;9.192;2023-12-14T09:14:02;4.50;92.20
11540;DHT22;5826;54.756;9.192;2023-12-14T09:16:28;4.50;91.70
11540;DHT22;5826;54.756;9.192;2023-12-14T09:18:53;4.50;91.50
11540;DHT22;5826;54.756;9.192;2023-12-14T09:21:19;4.50;91.40
11540;DHT22;5826;54.756;9.192;2023-12-14T09:23:44;4.50;91.40
11540;DHT22;5826;54.756;9.192;2023-12-14T09:26:10;4.50;91.40
11540;DHT22;5826;54.756;9.192;2023-12-14T09:28:36;4.50;91.30
11540;DHT22;5826;54.756;9.192;2023-12-14T09:31:02;4.60;91.40
11540;DHT22;5826;54.756;9.192;2023-12-14T09:33:28;4.60;91.40
11540;DHT22;5826;54.756;9.192;2023-12-14T09:35:53;5.20;91.50
11540;DHT22;5826;54.756;9.192;2023-12-14T09:38:19;4.60;91.10
11540;DHT22;5826;54.756;9.192;2023-12-14T09:40:44;4.60;91.20
11540;DHT22;5826;54.756;9.192;2023-12-14T09:43:10;4.60;91.40
11540;DHT22;5826;54.756;9.192;2023-12-14T09:45:38;4.80;91.40
11540;DHT22;5826;54.756;9.192;2023-12-14T09:48:08;4.80;91.40
11540;DHT22;5826;54.756;9.192;2023-12-14T09:50:35;4.90;91.30
11540;DHT22;5826;54.756;9.192;2023-12-14T09:53:02;4.90;91.20
11540;DHT22;5826;54.756;9.192;2023-12-14T09:55:28;4.90;91.20
11540;DHT22;5826;54.756;9.192;2023-12-14T09:57:53;5.20;91.10
11540;DHT22;5826;54.756;9.192;2023-12-14T10:00:36;4.90;91.00
11540;DHT22;5826;54.756;9.192;2023-12-14T10:03:17;4.90;91.00
11540;DHT22;5826;54.756;9.192;2023-12-14T10:05:43;4.90;90.80
11540;DHT22;5826;54.756;9.192;2023-12-14T10:08:08;4.90;90.90
11540;DHT22;5826;54.756;9.192;2023-12-14T10:10:34;5.00;90.90
11540;DHT22;5826;54.756;9.192;2023-12-14T10:12:59;4.90;90.90
11540;DHT22;5826;54.756;9.192;2023-12-14T10:15:26;5.00;91.00
11540;DHT22;5826;54.756;9.192;2023-12-14T10:17:52;5.00;90.90
11540;DHT22;5826;54.756;9.192;2023-12-14T10:20:20;5.00;90.80
11540;DHT22;5826;54.756;9.192;2023-12-14T10:22:49;5.00;91.00
11540;DHT22;5826;54.756;9.192;2023-12-14T10:25:17;5.00;90.90
11540;DHT22;5826;54.756;9.192;2023-12-14T10:27:54;5.10;91.10
11540;DHT22;5826;54.756;9.192;2023-12-14T10:30:20;5.10;91.00
11540;DHT22;5826;54.756;9.192;2023-12-14T10:32:49;5.10;90.90
11540;DHT22;5826;54.756;9.192;2023-12-14T10:35:16;5.20;90.90
11540;DHT22;5826;54.756;9.192;2023-12-14T10:37:42;5.20;90.90
11540;DHT22;5826;54.756;9.192;2023-12-14T10:40:09;5.20;90.90
11540;DHT22;5826;54.756;9.192;2023-12-14T10:42:39;5.20;90.80
11540;DHT22;5826;54.756;9.192;2023-12-14T10:45:08;5.20;90.70
11540;DHT22;5826;54.756;9.192;2023-12-14T10:47:38;5.20;90.70
11540;DHT22;5826;54.756;9.192;2023-12-14T10:50:05;5.10;90.70
11540;DHT22;5826;54.756;9.192;2023-12-14T10:52:31;5.10;90.80
11540;DHT22;5826;54.756;9.192;2023-12-14T10:55:09;5.10;90.70
11540;DHT22;5826;54.756;9.192;2023-12-14T10:57:36;5.20;90.80
11540;DHT22;5826;54.756;9.192;2023-12-14T11:00:05;5.10;90.50
11540;DHT22;5826;54.756;9.192;2023-12-14T11:02:39;4.90;90.50
11540;DHT22;5826;54.756;9.192;2023-12-14T11:05:06;4.90;90.90
11540;DHT22;5826;54.756;9.192;2023-12-14T11:07:48;4.80;91.00
11540;DHT22;5826;54.756;9.192;2023-12-14T11:10:14;4.60;91.20
11540;DHT22;5826;54.756;9.192;2023-12-14T11:12:51;4.60;91.10
11540;DHT22;5826;54.756;9.192;2023-12-14T11:15:21;4.60;91.10
11540;DHT22;5826;54.756;9.192;2023-12-14T11:21:01;4.40;91.50
11540;DHT22;5826;54.756;9.192;2023-12-14T11:23:30;4.40;91.40
11540;DHT22;5826;54.756;9.192;2023-12-14T11:25:58;4.40;91.30
11540;DHT22;5826;54.756;9.192;2023-12-14T11:28:28;4.40;91.20
11540;DHT22;5826;54.756;9.192;2023-12-14T11:30:54;4.30;91.30
11540;DHT22;5826;54.756;9.192;2023-12-14T11:33:21;4.20;91.30
11540;DHT22;5826;54.756;9.192;2023-12-14T11:35:46;4.20;91.20
11540;DHT22;5826;54.756;9.192;2023-12-14T11:38:12;4.10;91.40
11540;DHT22;5826;54.756;9.192;2023-12-14T11:40:40;4.10;91.50
11540;DHT22;5826;54.756;9.192;2023-12-14T11:43:08;4.00;91.50
11540;DHT22;5826;54.756;9.192;2023-12-14T11:45:42;4.00;91.60
11540;DHT22;5826;54.756;9.192;2023-12-14T11:48:10;4.00;91.40
11540;DHT22;5826;54.756;9.192;2023-12-14T11:50:38;4.00;91.50
11540;DHT22;5826;54.756;9.192;2023-12-14T11:53:04;4.00;91.40
11540;DHT22;5826;54.756;9.192;2023-12-14T11:55:31;4.00;91.50
11540;DHT22;5826;54.756;9.192;2023-12-14T11:57:57;4.00;91.50
11540;DHT22;5826;54.756;9.192;2023-12-14T12:00:27;4.10;91.60
11540;DHT22;5826;54.756;9.192;2023-12-14T12:03:14;4.10;91.50
11540;DHT22;5826;54.756;9.192;2023-12-14T12:05:44;4.20;91.50
11540;DHT22;5826;54.756;9.192;2023-12-14T12:08:11;4.30;91.30
11540;DHT22;5826;54.756;9.192;2023-12-14T12:10:38;4.40;91.10
11540;DHT22;5826;54.756;9.192;2023-12-14T12:13:06;4.40;91.00
11540;DHT22;5826;54.756;9.192;2023-12-14T12:15:32;4.50;90.80
11540;DHT22;5826;54.756;9.192;2023-12-14T12:18:05;4.60;90.60
11540;DHT22;5826;54.756;9.192;2023-12-14T12:20:31;4.60;90.60
11540;DHT22;5826;54.756;9.192;2023-12-14T12:22:57;4.60;90.20
11540;DHT22;5826;54.756;9.192;2023-12-14T12:25:23;4.60;90.30
11540;DHT22;5826;54.756;9.192;2023-12-14T12:27:48;4.50;90.30
11540;DHT22;5826;54.756;9.192;2023-12-14T12:30:14;4.50;90.50
11540;DHT22;5826;54.756;9.192;2023-12-14T12:32:40;4.50;90.70
11540;DHT22;5826;54.756;9.192;2023-12-14T12:35:07;4.50;90.80
11540;DHT22;5826;54.756;9.192;2023-12-14T12:37:32;4.50;90.70
11540;DHT22;5826;54.756;9.192;2023-12-14T12:39:58;4.50;90.50
11540;DHT22;5826;54.756;9.192;2023-12-14T12:42:23;4.50;90.70
11540;DHT22;5826;54.756;9.192;2023-12-14T12:44:50;4.50;90.70
11540;DHT22;5826;54.756;9.192;2023-12-14T12:47:16;4.50;90.70
11540;DHT22;5826;54.756;9.192;2023-12-14T12:49:42;4.60;90.70
11540;DHT22;5826;54.756;9.192;2023-12-14T12:52:07;4.60;90.70
11540;DHT22;5826;54.756;9.192;2023-12-14T12:54:33;4.70;90.60
11540;DHT22;5826;54.756;9.192;2023-12-14T12:56:58;4.70;90.30
11540;DHT22;5826;54.756;9.192;2023-12-14T12:59:24;4.80;90.10
11540;DHT22;5826;54.756;9.192;2023-12-14T13:01:49;4.70;90.20
11540;DHT22;5826;54.756;9.192;2023-12-14T13:04:19;4.70;90.30
11540;DHT22;5826;54.756;9.192;2023-12-14T13:06:45;4.60;90.60
11540;DHT22;5826;54.756;9.192;2023-12-14T13:09:11;4.60;90.60
11540;DHT22;5826;54.756;9.192;2023-12-14T13:11:37;4.60;90.60
11540;DHT22;5826;54.756;9.192;2023-12-14T13:14:02;4.60;90.80
11540;DHT22;5826;54.756;9.192;2023-12-14T13:16:33;4.60;90.80
11540;DHT22;5826;54.756;9.192;2023-12-14T13:18:59;4.60;90.60
11540;DHT22;5826;54.756;9.192;2023-12-14T13:21:25;4.70;90.60
11540;DHT22;5826;54.756;9.192;2023-12-14T13:23:50;4.70;90.60
11540;DHT22;5826;54.756;9.192;2023-12-14T13:26:16;4.70;90.40
11540;DHT22;5826;54.756;9.192;2023-12-14T13:28:42;4.70;90.40
11540;DHT22;5826;54.756;9.192;2023-12-14T13:31:07;4.70;90.20
11540;DHT22;5826;54.756;9.192;2023-12-14T13:33:33;4.80;90.40
11540;DHT22;5826;54.756;9.192;2023-12-14T13:35:58;4.80;90.30
11540;DHT22;5826;54.756;9.192;2023-12-14T13:38:24;4.80;90.50
11540;DHT22;5826;54.756;9.192;2023-12-14T13:40:50;4.80;90.30
11540;DHT22;5826;54.756;9.192;2023-12-14T13:43:16;4.80;90.40
11540;DHT22;5826;54.756;9.192;2023-12-14T13:45:42;4.80;90.20
11540;DHT22;5826;54.756;9.192;2023-12-14T13:48:08;4.80;90.40
11540;DHT22;5826;54.756;9.192;2023-12-14T13:50:33;4.80;90.30
11540;DHT22;5826;54.756;9.192;2023-12-14T13:53:00;4.80;90.40
11540;DHT22;5826;54.756;9.192;2023-12-14T13:55:25;4.80;90.50
11540;DHT22;5826;54.756;9.192;2023-12-14T13:57:51;4.80;90.50
11540;DHT22;5826;54.756;9.192;2023-12-14T14:00:17;4.80;90.60
11540;DHT22;5826;54.756;9.192;2023-12-14T14:02:44;4.80;90.60
11540;DHT22;5826;54.756;9.192;2023-12-14T14:05:10;4.70;90.70
11540;DHT22;5826;54.756;9.192;2023-12-14T14:07:35;4.60;90.70
11540;DHT22;5826;54.756;9.192;2023-12-14T14:10:01;4.60;90.90
11540;DHT22;5826;54.756;9.192;2023-12-14T14:12:27;4.50;90.90
11540;DHT22;5826;54.756;9.192;2023-12-14T14:14:52;4.50;91.00
11540;DHT22;5826;54.756;9.192;2023-12-14T14:17:18;4.50;91.00
11540;DHT22;5826;54.756;9.192;2023-12-14T14:19:43;4.50;91.10
11540;DHT22;5826;54.756;9.192;2023-12-14T14:22:09;4.50;91.10
11540;DHT22;5826;54.756;9.192;2023-12-14T14:24:34;4.50;91.10
11540;DHT22;5826;54.756;9.192;2023-12-14T14:27:00;4.50;91.10
11540;DHT22;5826;54.756;9.192;2023-12-14T14:29:25;4.50;91.20
11540;DHT22;5826;54.756;9.192;2023-12-14T14:31:50;4.50;91.20
11540;DHT22;5826;54.756;9.192;2023-12-14T14:34:16;4.50;91.30
11540;DHT22;5826;54.756;9.192;2023-12-14T14:36:41;4.50;91.30
11540;DHT22;5826;54.756;9.192;2023-12-14T14:39:07;4.50;91.30
11540;DHT22;5826;54.756;9.192;2023-12-14T14:41:33;4.50;91.40
11540;DHT22;5826;54.756;9.192;2023-12-14T14:43:58;4.50;91.40
11540;DHT22;5826;54.756;9.192;2023-12-14T14:46:24;4.60;91.50
11540;DHT22;5826;54.756;9.192;2023-12-14T14:48:49;4.50;91.50
11540;DHT22;5826;54.756;9.192;2023-12-14T14:51:15;4.50;91.50
11540;DHT22;5826;54.756;9.192;2023-12-14T14:53:40;4.50;91.50
11540;DHT22;5826;54.756;9.192;2023-12-14T14:56:10;4.40;91.60
11540;DHT22;5826;54.756;9.192;2023-12-14T14:58:35;4.40;91.60
11540;DHT22;5826;54.756;9.192;2023-12-14T15:01:01;4.40;91.70
11540;DHT22;5826;54.756;9.192;2023-12-14T15:03:26;4.40;91.80
11540;DHT22;5826;54.756;9.192;2023-12-14T15:05:52;4.40;91.80
11540;DHT22;5826;54.756;9.192;2023-12-14T15:08:17;4.40;91.90
11540;DHT22;5826;54.756;9.192;2023-12-14T15:10:43;4.40;91.90
11540;DHT22;5826;54.756;9.192;2023-12-14T15:13:08;4.40;91.80
11540;DHT22;5826;54.756;9.192;2023-12-14T15:15:34;4.40;91.80
11540;DHT22;5826;54.756;9.192;2023-12-14T15:18:01;4.40;91.80
11540;DHT22;5826;54.756;9.192;2023-12-14T15:20:26;4.40;91.80
11540;DHT22;5826;54.756;9.192;2023-12-14T15:22:52;4.40;91.90
11540;DHT22;5826;54.756;9.192;2023-12-14T15:25:17;4.40;91.90
11540;DHT22;5826;54.756;9.192;2023-12-14T15:27:43;4.30;91.90
11540;DHT22;5826;54.756;9.192;2023-12-14T15:30:09;4.30;91.90
11540;DHT22;5826;54.756;9.192;2023-12-14T15:32:37;4.40;92.00
11540;DHT22;5826;54.756;9.192;2023-12-14T15:35:02;4.40;92.10
11540;DHT22;5826;54.756;9.192;2023-12-14T15:37:28;4.40;92.00
11540;DHT22;5826;54.756;9.192;2023-12-14T15:39:54;4.40;92.00
11540;DHT22;5826;54.756;9.192;2023-12-14T15:42:19;4.40;92.00
11540;DHT22;5826;54.756;9.192;2023-12-14T15:44:45;4.40;91.90
11540;DHT22;5826;54.756;9.192;2023-12-14T15:47:14;4.70;92.10
11540;DHT22;5826;54.756;9.192;2023-12-14T15:49:42;4.30;91.90
11540;DHT22;5826;54.756;9.192;2023-12-14T15:52:08;4.30;92.00
11540;DHT22;5826;54.756;9.192;2023-12-14T15:54:34;4.30;92.10
11540;DHT22;5826;54.756;9.192;2023-12-14T15:56:59;4.30;92.10
11540;DHT22;5826;54.756;9.192;2023-12-14T15:59:25;4.30;92.10
11540;DHT22;5826;54.756;9.192;2023-12-14T16:01:51;4.30;92.10